Terminal Aerodrome Forecast
Issued by NWS

Current Version | Previous Version | Graphics & Text | Print | Product List | Glossary On
Versions: 1 2 3 4 5 6 7 8 9 10 11 12 13 14 15 16 17 18 19 20 21 22 23 24 25 26 27 28 29 30 31 32 33 34 35 36 37 38 39 40 41 42 43 44 45
000
FTUS41 KRNK 301022 AAC
TAFLWB
TAF AMD
KLWB 301022Z 3010/3106 00000KT 5SM -SHRA BR VCTS SCT011 OVC050CB
      TEMPO 3011/3012 2SM SHRA BR BKN011
     FM301200 26005KT P6SM SCT012 BKN025
     FM301700 32009KT P6SM SCT250=

USA.gov is the U.S. government's official web portal to all federal, state and local government web resources and services.